Time;durP1;ratioP1;P1;durP2;ratioP2;P2;SDS_P1;SDS_P2;PMS_P1;PMS_P2;Temp;Humidity;BMP_temperature;BMP_pressure;BME280_temperature;BME280_humidity;BME280_pressure;Samples;Min_cycle;Max_cycle;Signal;HPM_P1;HPM_P2
2021/10/28 00:13:44;;;;;;;;;;;24.20;99.90;;;;;;4974273;28;20393;-78
2021/10/28 00:16:16;;;;;;;;;;;24.30;99.90;;;;;;4974258;28;19914;-79
2021/10/28 00:18:49;;;;;;;;;;;24.30;99.90;;;;;;4974358;28;20366;-79
2021/10/28 00:21:16;;;;;;;;;;;24.30;99.90;;;;;;4974182;28;20392;-76
2021/10/28 00:23:50;;;;;;;;;;;24.30;99.90;;;;;;4974321;28;20001;-79
2021/10/28 00:26:18;;;;;;;;;;;24.20;99.90;;;;;;4974196;28;19957;-80
2021/10/28 00:28:45;;;;;;;;;;;24.20;99.90;;;;;;4974064;28;20010;-80
2021/10/28 00:31:12;;;;;;;;;;;24.20;99.90;;;;;;4974389;28;19949;-78
2021/10/28 00:33:38;;;;;;;;;;;24.50;99.90;;;;;;4974147;28;19938;-80
2021/10/28 00:36:07;;;;;;;;;;;24.80;99.90;;;;;;4973890;28;19915;-79
2021/10/28 00:38:34;;;;;;;;;;;25.00;99.90;;;;;;4974412;28;19918;-79
2021/10/28 00:41:01;;;;;;;;;;;25.30;99.90;;;;;;4973688;28;19918;-80
2021/10/28 00:43:29;;;;;;;;;;;25.80;99.90;;;;;;4973713;28;19917;-80
2021/10/28 00:45:56;;;;;;;;;;;25.90;99.90;;;;;;4973996;28;20365;-79
2021/10/28 00:48:22;;;;;;;;;;;25.80;97.80;;;;;;4973765;28;20300;-79
2021/10/28 00:50:55;;;;;;;;;;;25.70;96.40;;;;;;4973840;28;20396;-80
2021/10/28 00:53:25;;;;;;;;;;;25.60;97.60;;;;;;4957068;28;19910;-78
2021/10/28 00:55:52;;;;;;;;;;;25.50;98.10;;;;;;4973652;28;19910;-74
2021/10/28 00:58:22;;;;;;;;;;;25.70;98.80;;;;;;4973510;28;19925;-79
2021/10/28 01:00:50;;;;;;;;;;;25.80;98.80;;;;;;4973669;28;19947;-78
2021/10/28 01:03:17;;;;;;;;;;;26.00;97.60;;;;;;4973285;28;19961;-76
2021/10/28 01:05:44;;;;;;;;;;;26.20;96.50;;;;;;4973584;28;19960;-79
2021/10/28 01:08:11;;;;;;;;;;;26.40;97.20;;;;;;4973256;28;19918;-78
2021/10/28 01:10:37;;;;;;;;;;;26.60;97.00;;;;;;4973556;28;19917;-79
2021/10/28 01:13:04;;;;;;;;;;;27.10;93.60;;;;;;4973012;28;20328;-79
2021/10/28 01:15:31;;;;;;;;;;;27.50;84.00;;;;;;4973189;28;19921;-77
2021/10/28 01:17:58;;;;;;;;;;;27.40;80.80;;;;;;4973181;28;19964;-77
2021/10/28 01:20:24;;;;;;;;;;;27.70;76.00;;;;;;4973417;28;19910;-78
2021/10/28 01:22:51;;;;;;;;;;;27.90;81.00;;;;;;4972900;28;20004;-78
2021/10/28 01:25:18;;;;;;;;;;;27.50;78.00;;;;;;4973119;28;19918;-78
2021/10/28 01:27:44;;;;;;;;;;;27.20;77.60;;;;;;4973223;28;19914;-78
2021/10/28 01:30:11;;;;;;;;;;;27.30;79.10;;;;;;4972981;28;19919;-77
2021/10/28 01:32:38;;;;;;;;;;;27.50;76.20;;;;;;4969695;28;19914;-76
2021/10/28 01:35:05;;;;;;;;;;;27.20;77.80;;;;;;4962832;28;20000;-78
2021/10/28 01:37:32;;;;;;;;;;;27.00;78.00;;;;;;4973066;28;19917;-78
2021/10/28 01:39:58;;;;;;;;;;;27.00;78.80;;;;;;4972887;28;19918;-75
2021/10/28 01:42:25;;;;;;;;;;;27.00;76.90;;;;;;4973217;28;19917;-80
2021/10/28 01:44:52;;;;;;;;;;;27.00;77.60;;;;;;4973064;28;19916;-79
2021/10/28 01:47:18;;;;;;;;;;;27.00;73.50;;;;;;4973313;28;19910;-78
2021/10/28 01:49:45;;;;;;;;;;;27.10;72.70;;;;;;4972599;28;19920;-77
2021/10/28 01:52:13;;;;;;;;;;;27.30;71.50;;;;;;4956812;28;19976;-77
2021/10/28 01:54:39;;;;;;;;;;;27.40;71.50;;;;;;4953820;29;19911;-79
2021/10/28 01:57:15;;;;;;;;;;;27.50;67.20;;;;;;4953520;28;19917;-77
2021/10/28 01:59:42;;;;;;;;;;;27.60;68.60;;;;;;4953555;29;19919;-79
2021/10/28 02:02:08;;;;;;;;;;;27.50;68.20;;;;;;4955472;28;19941;-79
2021/10/28 02:04:35;;;;;;;;;;;27.50;84.60;;;;;;4957626;28;19914;-77
2021/10/28 02:07:02;;;;;;;;;;;27.30;80.20;;;;;;4957656;28;19911;-77
2021/10/28 02:09:28;;;;;;;;;;;27.10;89.60;;;;;;4957802;28;20269;-78
2021/10/28 02:11:55;;;;;;;;;;;27.00;91.30;;;;;;4957264;28;20305;-79
2021/10/28 02:14:22;;;;;;;;;;;26.90;91.50;;;;;;4957057;29;20306;-80
2021/10/28 02:16:48;;;;;;;;;;;26.90;93.10;;;;;;4957172;28;19915;-78
2021/10/28 02:19:15;;;;;;;;;;;26.80;93.60;;;;;;4957229;29;19926;-76
2021/10/28 02:21:42;;;;;;;;;;;26.80;94.80;;;;;;4957190;28;19934;-80
2021/10/28 02:24:09;;;;;;;;;;;26.70;95.40;;;;;;4956934;29;20316;-80
2021/10/28 02:26:36;;;;;;;;;;;26.70;95.00;;;;;;4957263;28;19933;-78
2021/10/28 02:29:03;;;;;;;;;;;26.60;95.40;;;;;;4956978;28;20058;-79
2021/10/28 02:31:33;;;;;;;;;;;26.50;95.40;;;;;;4956807;29;19993;-80
2021/10/28 02:34:03;;;;;;;;;;;26.40;95.80;;;;;;4956967;28;19963;-75
2021/10/28 02:36:29;;;;;;;;;;;26.30;95.80;;;;;;4956732;28;19950;-78
2021/10/28 02:38:56;;;;;;;;;;;26.30;96.30;;;;;;4956843;28;19937;-76
2021/10/28 02:41:23;;;;;;;;;;;26.30;95.70;;;;;;4956843;28;19953;-78
2021/10/28 02:43:49;;;;;;;;;;;26.30;95.70;;;;;;4956765;29;19911;-76
2021/10/28 02:46:16;;;;;;;;;;;26.20;96.10;;;;;;4956483;29;19911;-78
2021/10/28 02:48:43;;;;;;;;;;;26.30;96.80;;;;;;4956730;28;19936;-79
2021/10/28 02:51:09;;;;;;;;;;;26.20;97.40;;;;;;4956664;28;19910;-80
2021/10/28 02:53:36;;;;;;;;;;;26.20;97.40;;;;;;4956662;29;19962;-78
2021/10/28 02:56:02;;;;;;;;;;;26.10;95.40;;;;;;4956373;29;19922;-78
2021/10/28 02:58:29;;;;;;;;;;;26.00;96.90;;;;;;4956307;29;19981;-77
2021/10/28 03:00:56;;;;;;;;;;;26.20;96.80;;;;;;4956511;28;19965;-80
2021/10/28 03:03:22;;;;;;;;;;;26.20;95.90;;;;;;4967390;28;20053;-77
2021/10/28 03:05:49;;;;;;;;;;;26.20;96.10;;;;;;4975975;28;20353;-80
2021/10/28 03:08:16;;;;;;;;;;;26.20;95.50;;;;;;4975327;28;19910;-77
2021/10/28 03:10:44;;;;;;;;;;;26.20;96.40;;;;;;4975851;28;20385;-79
2021/10/28 03:13:10;;;;;;;;;;;26.20;96.40;;;;;;4974151;28;19954;-78
2021/10/28 03:15:38;;;;;;;;;;;26.20;94.80;;;;;;4975361;28;19921;-79
2021/10/28 03:26:31;;;;;;;;;;;26.30;95.40;;;;;;4975764;28;20403;-75
2021/10/28 03:28:58;;;;;;;;;;;26.30;95.60;;;;;;4974899;28;19914;-80
2021/10/28 03:31:24;;;;;;;;;;;26.40;96.30;;;;;;4975375;28;19910;-77
2021/10/28 03:33:51;;;;;;;;;;;26.40;95.10;;;;;;4957890;28;19921;-76
2021/10/28 03:36:32;;;;;;;;;;;26.40;94.00;;;;;;4975246;28;19921;-79
2021/10/28 03:57:56;;;;;;;;;;;26.60;95.10;;;;;;4974835;28;19945;-76
2021/10/28 04:17:15;;;;;;;;;;;26.50;92.20;;;;;;4974212;28;19956;-80
2021/10/28 04:20:22;;;;;;;;;;;26.50;93.10;;;;;;4974136;28;19933;-77
2021/10/28 04:30:44;;;;;;;;;;;26.10;94.60;;;;;;4974884;28;19965;-80
2021/10/28 04:33:11;;;;;;;;;;;26.10;94.10;;;;;;4973416;28;19914;-76
2021/10/28 04:35:38;;;;;;;;;;;26.00;94.10;;;;;;4973822;28;20332;-78
2021/10/28 04:38:05;;;;;;;;;;;26.00;93.90;;;;;;4973642;28;20332;-75
2021/10/28 04:40:31;;;;;;;;;;;26.00;93.80;;;;;;4989108;28;20324;-73
2021/10/28 04:42:58;;;;;;;;;;;25.90;92.90;;;;;;4993583;28;19910;-80
2021/10/28 04:45:25;;;;;;;;;;;25.90;93.80;;;;;;4993302;28;19964;-79
2021/10/28 04:47:51;;;;;;;;;;;25.70;94.40;;;;;;4986938;28;20385;-75
2021/10/28 04:50:18;;;;;;;;;;;25.60;94.70;;;;;;4973553;28;19910;-79
2021/10/28 04:52:45;;;;;;;;;;;25.60;95.50;;;;;;4973630;28;19914;-78
2021/10/28 04:55:11;;;;;;;;;;;25.50;95.90;;;;;;4973427;28;20019;-80
2021/10/28 04:57:38;;;;;;;;;;;25.50;95.60;;;;;;4973805;28;19910;-78
2021/10/28 05:00:05;;;;;;;;;;;25.40;95.70;;;;;;4973399;28;20420;-73
2021/10/28 05:02:32;;;;;;;;;;;25.40;94.50;;;;;;4973496;28;19921;-80
2021/10/28 05:04:59;;;;;;;;;;;25.30;94.20;;;;;;4973646;28;19911;-78
2021/10/28 05:07:25;;;;;;;;;;;25.30;94.80;;;;;;4973777;28;19918;-76
2021/10/28 05:09:52;;;;;;;;;;;25.30;95.50;;;;;;4973646;28;19955;-80
2021/10/28 05:12:19;;;;;;;;;;;25.30;94.60;;;;;;4973231;28;20357;-78
2021/10/28 05:14:46;;;;;;;;;;;25.40;94.40;;;;;;4973688;28;19910;-80
2021/10/28 05:17:12;;;;;;;;;;;25.30;93.90;;;;;;4973564;28;20372;-77
2021/10/28 05:19:39;;;;;;;;;;;25.30;93.80;;;;;;4973203;28;20364;-80
2021/10/28 05:22:07;;;;;;;;;;;25.20;94.50;;;;;;4972923;28;20361;-78
2021/10/28 05:24:33;;;;;;;;;;;25.20;94.70;;;;;;4973608;28;20005;-80
2021/10/28 05:27:00;;;;;;;;;;;25.30;95.10;;;;;;4973241;28;19914;-75
2021/10/28 05:29:28;;;;;;;;;;;25.20;95.30;;;;;;4973372;28;19965;-79
2021/10/28 05:31:54;;;;;;;;;;;25.10;98.80;;;;;;4973213;28;20015;-79
2021/10/28 05:34:21;;;;;;;;;;;25.00;99.50;;;;;;4973156;28;19914;-80
2021/10/28 05:36:49;;;;;;;;;;;24.80;97.40;;;;;;4972647;28;20396;-79
2021/10/28 05:39:16;;;;;;;;;;;24.80;98.20;;;;;;4972956;28;20013;-80
2021/10/28 05:41:42;;;;;;;;;;;24.80;96.90;;;;;;4973250;28;19910;-79
2021/10/28 05:44:09;;;;;;;;;;;24.90;96.80;;;;;;4973259;28;20361;-81
2021/10/28 05:46:36;;;;;;;;;;;24.90;95.80;;;;;;4973233;28;19917;-80
2021/10/28 05:49:03;;;;;;;;;;;25.00;95.20;;;;;;4973319;28;20392;-80
2021/10/28 05:51:30;;;;;;;;;;;25.00;95.50;;;;;;4971184;28;19945;-77
2021/10/28 05:53:57;;;;;;;;;;;25.00;94.70;;;;;;4970886;28;19914;-78
2021/10/28 05:56:23;;;;;;;;;;;25.10;95.60;;;;;;4971043;28;19910;-79
2021/10/28 05:58:50;;;;;;;;;;;25.10;95.20;;;;;;4971148;28;20297;-79
2021/10/28 06:01:16;;;;;;;;;;;25.20;95.60;;;;;;4971183;28;19922;-79
2021/10/28 06:03:43;;;;;;;;;;;25.30;96.00;;;;;;4970579;28;19922;-79
2021/10/28 06:06:10;;;;;;;;;;;25.20;95.40;;;;;;4970658;28;19910;-80
2021/10/28 06:08:36;;;;;;;;;;;25.20;94.50;;;;;;4971102;28;19921;-80
2021/10/28 06:11:03;;;;;;;;;;;25.10;94.60;;;;;;4970929;28;19910;-80
2021/10/28 06:13:30;;;;;;;;;;;25.20;95.10;;;;;;4970775;28;20320;-75
2021/10/28 06:15:57;;;;;;;;;;;25.20;94.70;;;;;;4970890;28;19920;-81
2021/10/28 06:20:54;;;;;;;;;;;25.10;93.90;;;;;;4970791;28;19918;-78
2021/10/28 06:23:21;;;;;;;;;;;25.20;93.90;;;;;;4971012;28;20368;-80
2021/10/28 06:25:47;;;;;;;;;;;25.20;94.00;;;;;;4970833;28;20304;-80
2021/10/28 06:28:14;;;;;;;;;;;25.20;94.20;;;;;;4970453;28;19964;-79
2021/10/28 06:30:41;;;;;;;;;;;25.30;93.70;;;;;;4970396;28;19918;-80
2021/10/28 06:33:15;;;;;;;;;;;25.30;93.50;;;;;;4970858;28;19957;-79
2021/10/28 06:35:43;;;;;;;;;;;25.20;92.90;;;;;;4970749;28;19918;-81
2021/10/28 06:38:10;;;;;;;;;;;25.20;92.90;;;;;;4970700;28;19965;-80
2021/10/28 06:40:37;;;;;;;;;;;25.20;92.70;;;;;;4970399;28;20432;-80
2021/10/28 06:43:04;;;;;;;;;;;25.10;92.90;;;;;;4970227;28;19938;-78
2021/10/28 06:45:31;;;;;;;;;;;25.10;93.40;;;;;;4970641;28;19918;-80
2021/10/28 06:47:57;;;;;;;;;;;25.10;93.60;;;;;;4972667;28;20005;-80
2021/10/28 06:50:33;;;;;;;;;;;25.10;94.10;;;;;;4973879;28;19914;-77
2021/10/28 06:53:12;;;;;;;;;;;25.00;93.90;;;;;;4973825;28;20265;-79
2021/10/28 07:03:29;;;;;;;;;;;25.00;93.40;;;;;;4974117;28;19929;-74
2021/10/28 07:06:01;;;;;;;;;;;25.00;93.40;;;;;;4973831;28;19925;-78
2021/10/28 07:08:28;;;;;;;;;;;25.00;92.40;;;;;;4973806;28;19922;-75
2021/10/28 07:10:56;;;;;;;;;;;24.90;91.60;;;;;;4956479;28;19914;-79
2021/10/28 07:13:29;;;;;;;;;;;24.90;90.40;;;;;;4973976;28;19949;-76
2021/10/28 07:16:00;;;;;;;;;;;24.80;90.50;;;;;;4974214;28;19910;-75
2021/10/28 07:21:06;;;;;;;;;;;24.80;90.60;;;;;;4959590;28;19915;-74
2021/10/28 07:24:08;;;;;;;;;;;24.80;90.10;;;;;;4961252;28;20428;-74
2021/10/28 07:26:46;;;;;;;;;;;24.80;89.30;;;;;;4962480;28;19922;-78
2021/10/28 08:15:43;;;;;;;;;;;24.40;85.00;;;;;;4955390;29;19965;-73
2021/10/28 08:29:05;;;;;;;;;;;24.30;85.30;;;;;;4955155;29;20489;-74
2021/10/28 08:31:32;;;;;;;;;;;24.30;85.60;;;;;;4954735;29;19956;-73
2021/10/28 08:33:59;;;;;;;;;;;24.20;85.50;;;;;;4954580;28;19972;-74
2021/10/28 08:36:31;;;;;;;;;;;24.20;85.30;;;;;;4955077;28;19911;-73
2021/10/28 08:38:58;;;;;;;;;;;24.20;85.40;;;;;;4955021;29;20517;-73
2021/10/28 08:41:25;;;;;;;;;;;24.20;86.30;;;;;;4937695;29;19915;-75
2021/10/28 08:43:55;;;;;;;;;;;24.30;86.40;;;;;;4955362;28;20365;-80
2021/10/28 08:46:24;;;;;;;;;;;24.20;87.00;;;;;;4954702;28;19959;-76
2021/10/28 08:48:54;;;;;;;;;;;24.10;88.40;;;;;;4954973;29;19914;-81
2021/10/28 08:51:29;;;;;;;;;;;24.10;92.60;;;;;;4954971;29;19921;-80
2021/10/28 08:54:47;;;;;;;;;;;24.00;93.80;;;;;;4954814;29;19910;-77
2021/10/28 08:56:57;;;;;;;;;;;23.90;94.20;;;;;;4950673;28;19917;-80
2021/10/28 08:59:56;;;;;;;;;;;23.90;94.40;;;;;;4954850;29;19919;-81
2021/10/28 09:24:59;;;;;;;;;;;23.30;99.50;;;;;;4953832;29;19917;-81
2021/10/28 09:27:34;;;;;;;;;;;23.30;99.90;;;;;;4954331;29;19918;-81
2021/10/28 09:32:35;;;;;;;;;;;23.10;99.90;;;;;;4954088;29;19921;-80
2021/10/28 09:51:36;;;;;;;;;;;22.50;99.90;;;;;;4954006;29;19914;-79
2021/10/28 09:59:25;;;;;;;;;;;22.50;99.90;;;;;;4954452;29;20325;-75
2021/10/28 10:01:58;;;;;;;;;;;22.40;99.90;;;;;;4954131;29;19914;-76
2021/10/28 10:04:26;;;;;;;;;;;22.50;99.90;;;;;;4954610;28;19922;-75
2021/10/28 10:06:53;;;;;;;;;;;22.40;99.90;;;;;;4954111;28;20274;-81
2021/10/28 10:09:20;;;;;;;;;;;22.40;99.90;;;;;;4953467;29;20005;-81
2021/10/28 10:11:47;;;;;;;;;;;22.40;99.90;;;;;;4953593;28;19914;-77
2021/10/28 10:14:14;;;;;;;;;;;22.30;99.90;;;;;;4953521;29;19910;-75
2021/10/28 10:16:42;;;;;;;;;;;22.40;99.90;;;;;;4954027;29;20012;-78
2021/10/28 10:19:11;;;;;;;;;;;22.30;99.90;;;;;;4953801;28;19918;-78
2021/10/28 10:21:41;;;;;;;;;;;22.30;99.90;;;;;;4953958;28;19933;-79
2021/10/28 10:24:26;;;;;;;;;;;22.30;99.90;;;;;;4957133;29;20300;-79
2021/10/28 10:30:14;;;;;;;;;;;22.30;99.90;;;;;;4957435;29;20308;-80
2021/10/28 11:19:24;;;;;;;;;;;22.10;99.90;;;;;;4956666;29;20388;-82
2021/10/28 11:21:58;;;;;;;;;;;22.10;99.90;;;;;;4956270;29;20412;-80
2021/10/28 12:48:00;;;;;;;;;;;21.60;99.90;;;;;;4955947;29;19914;-81
2021/10/28 13:04:07;;;;;;;;;;;21.40;99.90;;;;;;4895578;29;19923;-77
2021/10/28 13:07:33;;;;;;;;;;;21.40;99.90;;;;;;4895687;29;20010;-78
2021/10/28 13:48:16;;;;;;;;;;;21.30;99.90;;;;;;4954501;29;19930;-74
2021/10/28 13:50:59;;;;;;;;;;;21.20;99.90;;;;;;4937564;29;19911;-80
2021/10/28 14:26:09;;;;;;;;;;;21.20;99.90;;;;;;4957791;29;19911;-81
2021/10/28 14:39:18;;;;;;;;;;;21.10;99.90;;;;;;4957389;29;19929;-81
2021/10/28 14:58:42;;;;;;;;;;;21.10;99.90;;;;;;4957516;29;19917;-82
2021/10/28 15:28:17;;;;;;;;;;;21.10;99.90;;;;;;4956761;29;19918;-77
2021/10/28 15:31:10;;;;;;;;;;;21.00;99.90;;;;;;4956509;29;19914;-78
2021/10/28 16:24:22;;;;;;;;;;;21.00;99.90;;;;;;4955460;29;19911;-81
2021/10/28 16:26:48;;;;;;;;;;;21.10;99.60;;;;;;4938239;29;20272;-81
2021/10/28 16:29:15;;;;;;;;;;;21.10;99.90;;;;;;4955550;28;19974;-80
2021/10/28 16:31:43;;;;;;;;;;;21.10;99.60;;;;;;4955433;28;19918;-81
2021/10/28 16:34:09;;;;;;;;;;;21.10;99.30;;;;;;4955280;28;20408;-81
2021/10/28 16:36:36;;;;;;;;;;;21.20;98.90;;;;;;4955501;29;20317;-80
2021/10/28 16:39:09;;;;;;;;;;;21.20;98.70;;;;;;4955260;29;19918;-82
2021/10/28 16:41:36;;;;;;;;;;;21.20;98.60;;;;;;4955593;29;20383;-82
2021/10/28 16:44:04;;;;;;;;;;;21.20;99.00;;;;;;4955300;29;20424;-81
2021/10/28 16:46:31;;;;;;;;;;;21.10;98.70;;;;;;4955237;28;19985;-81
2021/10/28 16:48:58;;;;;;;;;;;21.20;98.00;;;;;;4955273;28;20100;-80
2021/10/28 16:51:25;;;;;;;;;;;21.20;98.10;;;;;;4955338;29;19957;-80
2021/10/28 16:53:53;;;;;;;;;;;21.20;97.20;;;;;;4955017;29;20415;-81
2021/10/28 16:56:19;;;;;;;;;;;21.20;96.30;;;;;;4955000;28;19917;-79
2021/10/28 16:58:46;;;;;;;;;;;21.20;96.40;;;;;;4955326;28;19917;-80
2021/10/28 17:01:13;;;;;;;;;;;21.30;96.50;;;;;;4955248;28;20053;-81
2021/10/28 17:03:40;;;;;;;;;;;21.30;96.30;;;;;;4955205;28;19985;-77
2021/10/28 17:06:07;;;;;;;;;;;21.30;96.40;;;;;;4955297;28;20290;-81
2021/10/28 17:08:34;;;;;;;;;;;21.30;96.20;;;;;;4955491;29;20382;-81
2021/10/28 17:11:01;;;;;;;;;;;21.30;96.40;;;;;;4954694;29;20013;-74
2021/10/28 17:13:28;;;;;;;;;;;21.20;96.10;;;;;;4954821;29;19911;-75
2021/10/28 17:15:55;;;;;;;;;;;21.30;96.40;;;;;;4954602;29;19911;-80
2021/10/28 17:18:21;;;;;;;;;;;21.20;95.90;;;;;;4954213;28;19922;-80
2021/10/28 17:20:48;;;;;;;;;;;21.30;96.00;;;;;;4954724;28;19972;-76
2021/10/28 17:23:17;;;;;;;;;;;21.30;95.90;;;;;;4954525;29;20353;-77
2021/10/28 17:25:50;;;;;;;;;;;21.40;95.40;;;;;;4954597;29;20246;-76
2021/10/28 17:28:17;;;;;;;;;;;21.30;95.00;;;;;;4954160;29;20429;-81
2021/10/28 17:30:44;;;;;;;;;;;21.40;95.00;;;;;;4937368;29;20306;-80
2021/10/28 17:33:11;;;;;;;;;;;21.40;94.30;;;;;;4954605;29;19915;-78
2021/10/28 17:35:37;;;;;;;;;;;21.40;94.70;;;;;;4954268;28;19925;-79
2021/10/28 17:38:04;;;;;;;;;;;21.40;94.60;;;;;;4954021;29;19938;-76
2021/10/28 17:40:31;;;;;;;;;;;21.40;94.40;;;;;;4954183;28;19922;-76
2021/10/28 17:42:58;;;;;;;;;;;21.40;94.10;;;;;;4954270;29;19911;-80
2021/10/28 17:45:26;;;;;;;;;;;21.30;94.20;;;;;;4954375;28;20415;-79
2021/10/28 17:47:54;;;;;;;;;;;21.40;94.50;;;;;;4954238;28;19911;-77
2021/10/28 17:50:22;;;;;;;;;;;21.30;94.40;;;;;;4954016;29;19910;-77
2021/10/28 17:52:48;;;;;;;;;;;21.30;94.00;;;;;;4954286;28;19993;-76
2021/10/28 17:55:15;;;;;;;;;;;21.30;94.40;;;;;;4954323;28;19910;-76
2021/10/28 17:57:45;;;;;;;;;;;21.30;94.00;;;;;;4954163;29;20373;-76
2021/10/28 18:00:13;;;;;;;;;;;21.30;93.90;;;;;;4953945;29;19922;-77
2021/10/28 18:02:40;;;;;;;;;;;21.30;93.80;;;;;;4953915;28;20396;-74
2021/10/28 18:05:07;;;;;;;;;;;21.30;93.60;;;;;;4954016;29;19966;-79
2021/10/28 18:07:34;;;;;;;;;;;21.30;94.40;;;;;;4953986;28;20336;-76
2021/10/28 18:10:01;;;;;;;;;;;21.30;94.30;;;;;;4953659;28;20425;-79
2021/10/28 18:12:27;;;;;;;;;;;21.20;93.60;;;;;;4953955;29;19921;-80
2021/10/28 18:14:55;;;;;;;;;;;21.20;93.40;;;;;;4954063;29;20322;-78
2021/10/28 18:17:22;;;;;;;;;;;21.20;93.60;;;;;;4954127;28;20385;-80
2021/10/28 18:19:49;;;;;;;;;;;21.30;93.70;;;;;;4954072;29;20178;-78
2021/10/28 18:22:16;;;;;;;;;;;21.30;94.00;;;;;;4953666;28;19910;-75
2021/10/28 18:24:43;;;;;;;;;;;21.30;93.40;;;;;;4954151;28;19911;-74
2021/10/28 18:27:10;;;;;;;;;;;21.30;93.50;;;;;;4954065;29;19911;-74
2021/10/28 18:29:37;;;;;;;;;;;21.40;93.20;;;;;;4953863;29;19910;-77
2021/10/28 18:32:07;;;;;;;;;;;21.40;93.10;;;;;;4953741;28;19911;-76
2021/10/28 18:34:34;;;;;;;;;;;21.40;92.70;;;;;;4953819;29;19910;-76
2021/10/28 18:37:01;;;;;;;;;;;21.40;93.00;;;;;;4953729;29;19911;-74
2021/10/28 18:39:28;;;;;;;;;;;21.50;92.90;;;;;;4953978;29;20281;-74
2021/10/28 18:41:57;;;;;;;;;;;21.40;92.80;;;;;;4954045;29;19911;-77
2021/10/28 18:44:24;;;;;;;;;;;21.40;92.50;;;;;;4956165;28;19910;-77
2021/10/28 18:46:51;;;;;;;;;;;21.40;92.70;;;;;;4957472;29;19949;-77
2021/10/28 18:49:18;;;;;;;;;;;21.40;92.10;;;;;;4957306;29;19917;-79
2021/10/28 18:51:47;;;;;;;;;;;21.40;92.30;;;;;;4957144;29;20269;-81
2021/10/28 18:54:16;;;;;;;;;;;21.50;92.50;;;;;;4957228;28;20349;-77
2021/10/28 18:56:44;;;;;;;;;;;21.40;92.00;;;;;;4957300;28;19910;-81
2021/10/28 18:59:18;;;;;;;;;;;21.50;91.70;;;;;;4956432;29;20215;-79
2021/10/28 19:01:49;;;;;;;;;;;21.50;91.50;;;;;;4956963;29;19966;-78
2021/10/28 19:04:17;;;;;;;;;;;21.50;91.50;;;;;;4956516;28;19945;-81
2021/10/28 19:06:44;;;;;;;;;;;21.50;91.30;;;;;;4956794;28;19918;-80
2021/10/28 19:09:12;;;;;;;;;;;21.50;90.70;;;;;;4939435;29;19933;-81
2021/10/28 19:11:39;;;;;;;;;;;21.60;90.80;;;;;;4956611;29;19910;-81
2021/10/28 19:14:05;;;;;;;;;;;21.60;90.90;;;;;;4956434;29;20456;-79
2021/10/28 19:16:32;;;;;;;;;;;21.60;90.80;;;;;;4956953;28;19910;-80
2021/10/28 19:19:00;;;;;;;;;;;21.60;90.80;;;;;;4956666;28;19993;-81
2021/10/28 19:21:27;;;;;;;;;;;21.60;90.90;;;;;;4956462;28;19911;-80
2021/10/28 19:23:54;;;;;;;;;;;21.60;91.70;;;;;;4956493;29;20345;-81
2021/10/28 19:26:20;;;;;;;;;;;21.60;91.50;;;;;;4956291;29;20297;-78
2021/10/28 19:28:47;;;;;;;;;;;21.60;90.00;;;;;;4956521;29;19918;-76
2021/10/28 19:31:18;;;;;;;;;;;21.60;90.20;;;;;;4956541;28;20270;-79
2021/10/28 19:33:50;;;;;;;;;;;21.60;90.40;;;;;;4956625;29;20366;-80
2021/10/28 19:45:05;;;;;;;;;;;21.60;91.50;;;;;;4956578;29;19910;-80
2021/10/28 19:47:16;;;;;;;;;;;21.70;90.90;;;;;;4956697;29;20005;-80
2021/10/28 19:49:44;;;;;;;;;;;21.60;90.70;;;;;;4956260;28;19911;-81
2021/10/28 19:52:12;;;;;;;;;;;21.60;91.40;;;;;;4938610;29;19961;-81
2021/10/28 19:54:41;;;;;;;;;;;21.60;90.90;;;;;;4955437;28;19911;-81
2021/10/28 19:57:14;;;;;;;;;;;21.70;90.80;;;;;;4956072;29;20270;-79
2021/10/28 19:59:46;;;;;;;;;;;21.70;91.00;;;;;;4956374;29;20401;-78
2021/10/28 20:02:23;;;;;;;;;;;21.70;90.80;;;;;;4955842;29;19910;-81
2021/10/28 20:07:28;;;;;;;;;;;21.80;90.70;;;;;;4955745;29;20377;-80
2021/10/28 20:20:41;;;;;;;;;;;21.80;90.60;;;;;;4955689;29;19925;-81
2021/10/28 20:23:08;;;;;;;;;;;21.80;90.80;;;;;;4955691;29;20354;-78
2021/10/28 20:25:35;;;;;;;;;;;21.80;90.50;;;;;;4955756;29;19914;-78
2021/10/28 20:28:04;;;;;;;;;;;21.80;90.70;;;;;;4955305;28;19914;-80
2021/10/28 20:30:33;;;;;;;;;;;21.80;90.50;;;;;;4955326;28;19965;-81
2021/10/28 20:33:00;;;;;;;;;;;21.80;90.60;;;;;;4955581;29;19911;-81
2021/10/28 20:35:40;;;;;;;;;;;21.90;90.70;;;;;;4955166;28;19965;-81
2021/10/28 20:38:07;;;;;;;;;;;21.90;90.60;;;;;;4955033;29;20482;-80
2021/10/28 20:40:33;;;;;;;;;;;21.90;90.20;;;;;;4955332;29;19930;-81
2021/10/28 20:43:00;;;;;;;;;;;21.90;90.70;;;;;;4955141;29;20020;-81
2021/10/28 20:45:27;;;;;;;;;;;21.90;90.20;;;;;;4955029;28;20277;-81
2021/10/28 20:47:54;;;;;;;;;;;22.00;90.60;;;;;;4955206;28;19918;-79
2021/10/28 20:50:23;;;;;;;;;;;22.00;90.90;;;;;;4955622;28;19911;-77
2021/10/28 20:52:50;;;;;;;;;;;21.90;91.30;;;;;;4955082;28;19917;-80
2021/10/28 20:55:17;;;;;;;;;;;22.00;90.50;;;;;;4955034;28;20303;-79
2021/10/28 20:57:45;;;;;;;;;;;22.00;91.00;;;;;;4954805;28;19914;-81
2021/10/28 21:00:13;;;;;;;;;;;22.10;90.90;;;;;;4954617;29;19969;-81
2021/10/28 21:02:40;;;;;;;;;;;22.10;90.40;;;;;;4954909;28;20303;-80
2021/10/28 21:05:12;;;;;;;;;;;22.20;90.30;;;;;;4954992;29;19954;-81
2021/10/28 21:07:40;;;;;;;;;;;22.10;90.80;;;;;;4954938;28;19965;-80
2021/10/28 21:10:07;;;;;;;;;;;22.20;90.80;;;;;;4937660;29;19993;-80
2021/10/28 21:12:34;;;;;;;;;;;22.20;90.60;;;;;;4955595;29;19910;-79
2021/10/28 21:15:01;;;;;;;;;;;22.20;91.00;;;;;;4955341;28;19911;-82
2021/10/28 21:17:28;;;;;;;;;;;22.20;91.00;;;;;;4955511;29;19997;-80
2021/10/28 21:19:55;;;;;;;;;;;22.30;90.40;;;;;;4955576;29;19925;-80
2021/10/28 21:22:22;;;;;;;;;;;22.40;90.10;;;;;;4954635;28;20374;-79
2021/10/28 21:24:50;;;;;;;;;;;22.50;90.10;;;;;;4954580;29;19914;-79
2021/10/28 21:27:18;;;;;;;;;;;22.50;90.40;;;;;;4954358;29;19918;-79
2021/10/28 21:29:45;;;;;;;;;;;22.50;90.00;;;;;;4954273;28;20265;-80
2021/10/28 21:32:12;;;;;;;;;;;22.50;90.10;;;;;;4954164;28;20061;-79
2021/10/28 21:34:40;;;;;;;;;;;22.70;89.90;;;;;;4954133;29;19911;-77
2021/10/28 21:37:08;;;;;;;;;;;22.80;89.90;;;;;;4953832;29;19910;-75
2021/10/28 21:39:35;;;;;;;;;;;22.90;90.20;;;;;;4953991;28;20025;-73
2021/10/28 21:42:02;;;;;;;;;;;22.90;90.00;;;;;;4953877;28;20013;-73
2021/10/28 21:44:29;;;;;;;;;;;23.00;90.10;;;;;;4954289;29;19910;-80
2021/10/28 21:46:56;;;;;;;;;;;23.20;89.80;;;;;;4954062;28;19950;-75
2021/10/28 21:49:23;;;;;;;;;;;23.30;88.90;;;;;;4954021;28;20354;-77
2021/10/28 21:51:54;;;;;;;;;;;23.40;88.80;;;;;;4953991;28;19910;-76
2021/10/28 21:54:34;;;;;;;;;;;23.40;88.50;;;;;;4953867;29;19950;-76
2021/10/28 21:57:12;;;;;;;;;;;23.30;88.00;;;;;;4954333;29;20251;-74
2021/10/28 22:26:48;;;;;;;;;;;24.20;88.60;;;;;;4957563;29;19997;-73
2021/10/28 22:29:15;;;;;;;;;;;24.40;88.30;;;;;;4957084;28;19918;-76
2021/10/28 22:31:42;;;;;;;;;;;24.70;88.30;;;;;;4957277;28;19915;-74
2021/10/28 22:34:09;;;;;;;;;;;24.80;88.20;;;;;;4957316;29;19911;-77
2021/10/28 22:36:49;;;;;;;;;;;24.80;88.60;;;;;;4957550;29;19934;-74
2021/10/28 22:39:18;;;;;;;;;;;24.90;87.90;;;;;;4957324;29;19918;-79
2021/10/28 22:41:45;;;;;;;;;;;25.00;87.30;;;;;;4957097;28;19985;-76
2021/10/28 22:44:12;;;;;;;;;;;25.00;87.70;;;;;;4956769;28;20325;-73
2021/10/28 22:46:39;;;;;;;;;;;25.20;87.40;;;;;;4957131;28;19910;-79
2021/10/28 22:49:06;;;;;;;;;;;25.40;86.60;;;;;;4957161;28;20382;-74
2021/10/28 22:51:33;;;;;;;;;;;25.50;86.70;;;;;;4956918;28;20317;-79
2021/10/28 22:54:00;;;;;;;;;;;25.50;87.00;;;;;;4956857;28;19957;-79
2021/10/28 22:56:27;;;;;;;;;;;25.50;87.40;;;;;;4956844;29;19921;-75
2021/10/28 22:59:00;;;;;;;;;;;25.50;86.90;;;;;;4939338;29;19918;-73
2021/10/28 23:01:34;;;;;;;;;;;25.60;86.80;;;;;;4956894;29;20005;-79
2021/10/28 23:04:25;;;;;;;;;;;25.70;87.50;;;;;;4956382;29;20005;-80
2021/10/28 23:07:02;;;;;;;;;;;25.50;86.90;;;;;;4956484;29;20346;-75
2021/10/28 23:12:37;;;;;;;;;;;25.80;87.30;;;;;;4956755;29;19926;-77
2021/10/28 23:20:42;;;;;;;;;;;25.80;87.20;;;;;;4934203;29;20266;-79
2021/10/28 23:23:08;;;;;;;;;;;25.90;87.20;;;;;;4956370;29;19933;-75
2021/10/28 23:25:36;;;;;;;;;;;26.10;86.90;;;;;;4956459;28;20270;-73
2021/10/28 23:28:03;;;;;;;;;;;26.30;86.50;;;;;;4956022;28;20009;-75
2021/10/28 23:30:39;;;;;;;;;;;;;;;;;;;;;
2021/10/28 23:33:09;;;;;;;;;;;26.60;86.30;;;;;;4969347;28;19914;-73
2021/10/28 23:35:36;;;;;;;;;;;26.70;86.30;;;;;;4975683;28;20400;-72
2021/10/28 23:38:03;;;;;;;;;;;26.60;86.10;;;;;;4975438;28;19910;-74
2021/10/28 23:40:29;;;;;;;;;;;26.60;86.50;;;;;;4976198;28;19924;-75
2021/10/28 23:42:56;;;;;;;;;;;26.50;86.70;;;;;;4975574;28;20056;-72
2021/10/28 23:45:23;;;;;;;;;;;26.50;86.40;;;;;;4975298;28;19910;-73
2021/10/28 23:47:50;;;;;;;;;;;26.50;86.50;;;;;;4975395;28;19910;-73
2021/10/28 23:50:17;;;;;;;;;;;26.50;86.80;;;;;;4975083;28;20320;-73